createdAt,value
2022-10-13T00:01:20.197Z,9.63
2022-10-13T00:03:47.856Z,9.63
2022-10-13T00:06:23.172Z,9.60
2022-10-13T00:08:50.622Z,9.59
2022-10-13T00:11:20.478Z,9.59
2022-10-13T00:13:47.664Z,9.56
2022-10-13T00:16:15.771Z,9.52
2022-10-13T00:18:43.297Z,9.51
2022-10-13T00:21:11.621Z,9.50
2022-10-13T00:23:39.192Z,9.50
2022-10-13T00:26:07.460Z,9.48
2022-10-13T00:28:34.753Z,9.45
2022-10-13T00:31:02.116Z,9.38
2022-10-13T00:33:29.187Z,9.32
2022-10-13T00:35:56.215Z,9.30
2022-10-13T00:38:23.423Z,9.25
2022-10-13T00:40:51.749Z,9.16
2022-10-13T00:43:20.149Z,9.13
2022-10-13T00:45:49.995Z,9.13
2022-10-13T00:48:22.061Z,9.12
2022-10-13T00:50:50.589Z,9.11
2022-10-13T00:53:20.616Z,9.08
2022-10-13T00:55:48.555Z,9.09
2022-10-13T00:58:16.749Z,9.09
2022-10-13T01:00:46.873Z,9.06
2022-10-13T01:03:17.556Z,8.90
2022-10-13T01:05:44.698Z,8.80
2022-10-13T01:08:12.306Z,8.78
2022-10-13T01:10:39.910Z,8.75
2022-10-13T01:13:11.957Z,8.72
2022-10-13T01:15:39.657Z,8.71
2022-10-13T01:18:25.598Z,8.74
2022-10-13T01:21:01.171Z,8.78
2022-10-13T01:23:32.387Z,8.81
2022-10-13T01:26:08.981Z,8.84
2022-10-13T01:28:49.782Z,8.87
2022-10-13T01:31:24.857Z,8.91
2022-10-13T01:33:58.154Z,8.93
2022-10-13T01:36:39.754Z,8.95
2022-10-13T01:39:17.241Z,8.96
2022-10-13T01:41:46.549Z,8.96
2022-10-13T01:44:29.622Z,8.93
2022-10-13T01:46:57.149Z,8.91
2022-10-13T01:49:26.679Z,8.91
2022-10-13T01:51:54.866Z,8.91
2022-10-13T01:54:22.641Z,8.89
2022-10-13T01:56:54.081Z,8.88
2022-10-13T01:59:22.803Z,8.85
2022-10-13T02:01:52.922Z,8.80
2022-10-13T02:04:21.099Z,8.81
2022-10-13T02:06:52.743Z,8.84
2022-10-13T02:09:38.595Z,8.84
2022-10-13T02:12:07.092Z,8.83
2022-10-13T02:14:38.008Z,8.82
2022-10-13T02:17:05.464Z,8.81
2022-10-13T02:19:36.631Z,8.75
2022-10-13T02:22:04.493Z,8.68
2022-10-13T02:24:32.372Z,8.58
2022-10-13T02:26:59.467Z,8.52
2022-10-13T02:29:26.533Z,8.45
2022-10-13T02:31:54.902Z,8.38
2022-10-13T02:34:22.015Z,8.36
2022-10-13T02:36:49.127Z,8.33
2022-10-13T02:39:17.682Z,8.33
2022-10-13T02:41:44.678Z,8.26
2022-10-13T02:44:11.718Z,8.30
2022-10-13T02:46:41.978Z,8.35
2022-10-13T02:49:09.742Z,8.32
2022-10-13T02:51:40.165Z,8.33
2022-10-13T03:07:11.717Z,8.28
2022-10-13T03:09:38.869Z,8.29
2022-10-13T03:12:06.061Z,8.25
2022-10-13T03:14:34.312Z,8.27
2022-10-13T03:17:01.634Z,8.21
2022-10-13T03:19:28.816Z,8.16
2022-10-13T03:21:55.990Z,8.09
2022-10-13T03:24:23.128Z,8.09
2022-10-13T03:26:50.188Z,8.04
2022-10-13T03:29:20.484Z,7.99
2022-10-13T03:31:47.551Z,7.90
2022-10-13T03:34:15.808Z,7.83
2022-10-13T03:36:43.138Z,7.82
2022-10-13T03:39:10.196Z,7.79
2022-10-13T03:41:37.260Z,7.74
2022-10-13T03:44:04.417Z,7.75
2022-10-13T03:46:31.962Z,7.76
2022-10-13T03:48:59.405Z,7.78
2022-10-13T03:51:26.414Z,7.82
2022-10-13T03:53:53.920Z,7.85
2022-10-13T03:56:22.826Z,7.86
2022-10-13T03:58:54.407Z,7.88
2022-10-13T04:01:22.987Z,7.92
2022-10-13T04:03:51.887Z,7.92
2022-10-13T04:06:18.981Z,7.93
2022-10-13T04:08:46.308Z,7.90
2022-10-13T04:11:14.795Z,7.83
2022-10-13T04:13:43.297Z,7.78
2022-10-13T04:16:17.931Z,7.75
2022-10-13T04:18:45.407Z,7.71
2022-10-13T04:21:14.382Z,7.71
2022-10-13T04:23:41.844Z,7.74
2022-10-13T04:26:14.655Z,7.78
2022-10-13T04:28:41.702Z,7.79
2022-10-13T04:31:08.748Z,7.79
2022-10-13T04:33:36.260Z,7.80
2022-10-13T04:36:04.414Z,7.83
2022-10-13T04:38:31.542Z,7.92
2022-10-13T04:40:58.597Z,8.00
2022-10-13T04:43:28.793Z,8.04
2022-10-13T04:46:03.803Z,8.08
2022-10-13T04:48:31.003Z,8.10
2022-10-13T04:50:58.895Z,8.11
2022-10-13T04:53:29.071Z,8.12
2022-10-13T04:55:56.746Z,8.12
2022-10-13T04:58:23.752Z,8.15
2022-10-13T05:00:52.421Z,8.13
2022-10-13T05:03:19.518Z,8.12
2022-10-13T05:05:46.628Z,8.14
2022-10-13T05:08:13.675Z,8.14
2022-10-13T05:10:40.763Z,8.14
2022-10-13T05:13:07.776Z,8.18
2022-10-13T05:15:34.795Z,8.24
2022-10-13T05:18:01.834Z,8.31
2022-10-13T05:20:28.944Z,8.34
2022-10-13T05:22:56.992Z,8.38
2022-10-13T05:25:24.005Z,8.38
2022-10-13T05:27:51.019Z,8.40
2022-10-13T05:30:18.220Z,8.43
2022-10-13T05:32:45.246Z,8.44
2022-10-13T05:35:12.353Z,8.47
2022-10-13T05:37:40.661Z,8.49
2022-10-13T05:40:08.019Z,8.49
2022-10-13T05:42:35.603Z,8.50
2022-10-13T05:45:03.498Z,8.50
2022-10-13T05:47:30.786Z,8.50
2022-10-13T05:49:57.776Z,8.52
2022-10-13T05:52:25.518Z,8.52
2022-10-13T05:54:55.186Z,8.54
2022-10-13T05:57:47.276Z,8.55
2022-10-13T06:00:15.823Z,8.58
2022-10-13T06:02:54.899Z,8.61
2022-10-13T06:05:24.310Z,8.59
2022-10-13T06:07:54.184Z,8.61
2022-10-13T06:10:21.733Z,8.63
2022-10-13T06:12:48.744Z,8.65
2022-10-13T06:15:15.872Z,8.65
2022-10-13T06:17:43.022Z,8.67
2022-10-13T06:20:10.438Z,8.69
2022-10-13T06:22:37.890Z,8.71
2022-10-13T06:25:05.767Z,8.74
2022-10-13T06:27:32.881Z,8.76
2022-10-13T06:29:59.912Z,8.79
2022-10-13T06:32:26.999Z,8.81
2022-10-13T06:34:54.139Z,8.84
2022-10-13T06:37:26.984Z,8.87
2022-10-13T06:39:54.484Z,8.91
2022-10-13T06:42:22.071Z,8.95
2022-10-13T06:45:07.871Z,8.97
2022-10-13T06:47:34.906Z,9.01
2022-10-13T06:50:01.949Z,9.04
2022-10-13T06:52:29.268Z,9.06
2022-10-13T06:54:56.359Z,9.09
2022-10-13T06:57:23.410Z,9.12
2022-10-13T06:59:52.814Z,9.16
2022-10-13T07:02:20.197Z,9.19
2022-10-13T07:04:47.752Z,9.22
2022-10-13T07:07:16.132Z,9.23
2022-10-13T07:09:43.887Z,9.25
2022-10-13T07:12:12.898Z,9.30
2022-10-13T07:14:43.027Z,9.34
2022-10-13T07:17:11.071Z,9.38
2022-10-13T07:19:38.089Z,9.41
2022-10-13T07:22:05.254Z,9.43
2022-10-13T07:24:32.331Z,9.46
2022-10-13T07:27:02.758Z,9.46
2022-10-13T07:29:32.363Z,9.48
2022-10-13T07:31:59.413Z,9.47
2022-10-13T07:34:26.494Z,9.51
2022-10-13T07:36:53.546Z,9.57
2022-10-13T07:39:20.564Z,9.64
2022-10-13T07:41:51.116Z,9.69
2022-10-13T07:44:18.726Z,9.83
2022-10-13T07:46:45.828Z,9.87
2022-10-13T07:49:16.044Z,9.91
2022-10-13T07:51:44.343Z,9.88
2022-10-13T07:54:11.450Z,9.83
2022-10-13T07:56:39.692Z,9.85
2022-10-13T07:59:07.708Z,9.90
2022-10-13T08:01:34.810Z,9.95
2022-10-13T08:04:01.862Z,9.88
2022-10-13T08:06:29.029Z,9.92
2022-10-13T08:09:00.535Z,9.83
2022-10-13T08:11:27.561Z,9.89
2022-10-13T08:13:55.929Z,9.88
2022-10-13T08:16:22.955Z,9.88
2022-10-13T08:18:50.434Z,9.96
2022-10-13T08:21:57.062Z,10.04
2022-10-13T08:24:12.622Z,9.98
2022-10-13T08:26:40.209Z,9.90
2022-10-13T08:29:21.344Z,9.90
2022-10-13T08:34:25.317Z,9.96
2022-10-13T08:36:54.355Z,10.09
2022-10-13T08:39:22.611Z,10.15
2022-10-13T08:41:50.107Z,10.15
2022-10-13T08:47:29.589Z,10.25
2022-10-13T08:50:00.615Z,10.29
2022-10-13T08:52:41.884Z,10.32
2022-10-13T08:55:15.841Z,10.37
2022-10-13T08:57:43.484Z,10.41
2022-10-13T09:00:12.766Z,10.54
2022-10-13T09:02:43.051Z,10.51
2022-10-13T09:05:14.332Z,10.51
2022-10-13T09:07:42.821Z,10.61
2022-10-13T09:10:09.909Z,10.71
2022-10-13T09:12:36.961Z,10.75
2022-10-13T09:15:05.754Z,10.80
2022-10-13T09:17:33.633Z,10.84
2022-10-13T09:20:00.706Z,10.86
2022-10-13T09:22:32.040Z,10.85
2022-10-13T09:25:01.917Z,10.93
2022-10-13T09:27:28.934Z,10.98
2022-10-13T09:29:55.956Z,11.12
2022-10-13T09:32:25.910Z,11.14
2022-10-13T09:34:54.977Z,11.20
2022-10-13T09:37:23.752Z,11.23
2022-10-13T09:40:01.745Z,11.24
2022-10-13T09:42:31.635Z,11.21
2022-10-13T09:45:30.355Z,11.31
2022-10-13T09:47:58.993Z,11.29
2022-10-13T09:50:28.001Z,11.21
2022-10-13T09:53:09.778Z,11.28
2022-10-13T09:55:36.828Z,11.33
2022-10-13T09:58:12.817Z,11.36
2022-10-13T10:00:40.474Z,11.42
2022-10-13T10:03:14.754Z,11.48
2022-10-13T10:05:56.249Z,11.47
2022-10-13T10:08:50.954Z,11.50
2022-10-13T10:11:28.040Z,11.54
2022-10-13T10:13:56.071Z,11.50
2022-10-13T10:16:34.769Z,11.53
2022-10-13T10:19:13.197Z,11.57
2022-10-13T10:21:46.453Z,11.55
2022-10-13T10:24:13.504Z,11.51
2022-10-13T10:26:40.513Z,11.58
2022-10-13T10:29:14.706Z,11.53
2022-10-13T10:31:52.297Z,11.56
2022-10-13T10:34:41.900Z,11.51
2022-10-13T10:37:21.275Z,11.51
2022-10-13T10:40:13.604Z,11.50
2022-10-13T10:43:02.799Z,11.47
2022-10-13T10:45:39.379Z,11.44
2022-10-13T10:48:27.005Z,11.46
2022-10-13T10:50:54.149Z,11.46
2022-10-13T10:53:37.182Z,11.45
2022-10-13T10:56:14.997Z,11.47
2022-10-13T10:59:00.909Z,11.49
2022-10-13T11:01:32.814Z,11.49
2022-10-13T11:03:59.960Z,11.52
2022-10-13T11:06:34.706Z,11.50
2022-10-13T11:09:02.118Z,11.57
2022-10-13T11:11:32.288Z,11.61
2022-10-13T11:14:07.251Z,11.57
2022-10-13T11:16:34.265Z,11.54
2022-10-13T11:19:05.941Z,11.48
2022-10-13T11:21:52.182Z,11.43
2022-10-13T11:24:34.942Z,11.41
2022-10-13T11:27:08.180Z,11.50
2022-10-13T11:29:44.422Z,11.55
2022-10-13T11:32:35.700Z,11.66
2022-10-13T11:35:06.495Z,11.64
2022-10-13T11:37:55.805Z,11.65
2022-10-13T11:40:41.480Z,11.70
2022-10-13T11:43:11.311Z,11.74
2022-10-13T11:45:43.244Z,11.64
2022-10-13T11:48:10.766Z,11.61
2022-10-13T11:50:40.889Z,11.70
2022-10-13T11:53:07.994Z,11.76
2022-10-13T11:55:43.846Z,11.80
2022-10-13T11:58:28.299Z,11.77
2022-10-13T12:00:59.469Z,11.83
2022-10-13T12:03:30.725Z,11.74
2022-10-13T12:06:00.762Z,11.89
2022-10-13T12:08:29.364Z,11.91
2022-10-13T12:10:58.230Z,11.85
2022-10-13T12:13:26.840Z,11.94
2022-10-13T12:16:06.655Z,11.84
2022-10-13T12:18:36.015Z,11.78
2022-10-13T12:21:09.081Z,11.84
2022-10-13T12:23:36.329Z,11.82
2022-10-13T12:26:03.873Z,11.86
2022-10-13T12:28:50.634Z,11.92
2022-10-13T12:31:22.615Z,11.98
2022-10-13T12:33:53.907Z,11.97
2022-10-13T12:36:22.197Z,11.95
2022-10-13T12:38:50.943Z,11.95
2022-10-13T12:41:19.778Z,11.99
2022-10-13T12:43:46.918Z,12.00
2022-10-13T12:46:33.897Z,12.03
2022-10-13T12:49:05.302Z,12.06
2022-10-13T12:51:33.837Z,12.04
2022-10-13T12:54:05.910Z,12.06
2022-10-13T12:56:33.107Z,12.02
2022-10-13T12:59:00.224Z,12.04
2022-10-13T13:01:30.044Z,12.06
2022-10-13T13:04:01.846Z,12.11
2022-10-13T13:06:34.021Z,12.07
2022-10-13T13:09:19.569Z,12.02
2022-10-13T13:11:46.608Z,12.05
2022-10-13T13:14:32.323Z,12.08
2022-10-13T13:17:03.727Z,12.08
2022-10-13T13:19:32.026Z,12.08
2022-10-13T13:21:59.098Z,12.11
2022-10-13T13:24:36.096Z,12.09
2022-10-13T13:27:21.736Z,12.13
2022-10-13T13:29:49.255Z,12.12
2022-10-13T13:32:20.119Z,12.17
2022-10-13T13:34:48.070Z,12.19
2022-10-13T13:37:27.200Z,12.22
2022-10-13T13:39:55.033Z,12.22
2022-10-13T13:42:22.299Z,12.20
2022-10-13T13:44:49.601Z,12.21
2022-10-13T13:47:18.089Z,12.23
2022-10-13T13:49:46.675Z,12.26
2022-10-13T13:52:13.746Z,12.28
2022-10-13T13:54:40.876Z,12.29
2022-10-13T13:57:09.046Z,12.31
2022-10-13T13:59:36.367Z,12.31
2022-10-13T14:02:03.847Z,12.32
2022-10-13T14:04:33.608Z,12.31
2022-10-13T14:07:00.708Z,12.33
2022-10-13T14:09:27.845Z,12.32
2022-10-13T14:11:54.946Z,12.30
2022-10-13T14:14:22.042Z,12.28
2022-10-13T14:16:49.079Z,12.29
2022-10-13T14:19:16.170Z,12.29
2022-10-13T14:21:43.216Z,12.31
2022-10-13T14:24:10.751Z,12.31
2022-10-13T14:26:37.967Z,12.30
2022-10-13T14:29:05.006Z,12.31
2022-10-13T14:31:32.329Z,12.32
2022-10-13T14:33:59.346Z,12.34
2022-10-13T14:36:27.889Z,12.36
2022-10-13T14:38:55.078Z,12.33
2022-10-13T14:41:22.335Z,12.33
2022-10-13T14:43:56.083Z,12.33
2022-10-13T14:46:23.578Z,12.34
2022-10-13T14:48:50.658Z,12.35
2022-10-13T14:51:17.782Z,12.35
2022-10-13T14:53:45.653Z,12.33
2022-10-13T14:56:20.536Z,12.31
2022-10-13T14:58:53.438Z,12.28
2022-10-13T15:01:20.742Z,12.28
2022-10-13T15:03:48.191Z,12.28
2022-10-13T15:06:16.203Z,12.28
2022-10-13T15:08:44.186Z,12.28
2022-10-13T15:11:11.320Z,12.28
2022-10-13T15:13:38.693Z,12.26
2022-10-13T15:16:06.192Z,12.28
2022-10-13T15:18:33.961Z,12.26
2022-10-13T15:21:01.005Z,12.25
2022-10-13T15:23:28.067Z,12.25
2022-10-13T15:25:56.420Z,12.26
2022-10-13T15:28:24.202Z,12.22
2022-10-13T15:30:51.446Z,12.21
2022-10-13T15:33:18.747Z,12.22
2022-10-13T15:35:49.947Z,12.21
2022-10-13T15:38:17.989Z,12.21
2022-10-13T15:40:45.219Z,12.21
2022-10-13T15:43:12.260Z,12.22
2022-10-13T15:45:39.391Z,12.20
2022-10-13T15:48:07.378Z,12.15
2022-10-13T15:50:34.857Z,12.14
2022-10-13T15:53:01.930Z,12.14
2022-10-13T15:55:29.068Z,12.15
2022-10-13T15:57:56.082Z,12.13
2022-10-13T16:00:23.172Z,12.09
2022-10-13T16:02:51.423Z,12.08
2022-10-13T16:05:18.951Z,12.09
2022-10-13T16:07:46.155Z,12.10
2022-10-13T16:10:14.637Z,12.08
2022-10-13T16:12:48.314Z,12.07
2022-10-13T16:15:17.922Z,12.05
2022-10-13T16:17:48.093Z,12.04
2022-10-13T16:20:15.139Z,12.03
2022-10-13T16:22:42.235Z,12.04
2022-10-13T16:25:10.961Z,12.01
2022-10-13T16:27:41.760Z,11.97
2022-10-13T16:30:11.131Z,11.96
2022-10-13T16:32:39.256Z,11.92
2022-10-13T16:35:06.785Z,11.88
2022-10-13T16:37:34.056Z,11.84
2022-10-13T16:40:01.238Z,11.85
2022-10-13T16:42:28.272Z,11.84
2022-10-13T16:44:55.320Z,11.80
2022-10-13T16:47:27.503Z,11.79
2022-10-13T16:49:54.582Z,11.77
2022-10-13T16:52:21.664Z,11.74
2022-10-13T16:54:48.710Z,11.67
2022-10-13T16:57:15.879Z,11.62
2022-10-13T16:59:42.928Z,11.55
2022-10-13T17:02:12.939Z,11.51
2022-10-13T17:04:41.264Z,11.47
2022-10-13T17:07:08.595Z,11.46
2022-10-13T17:09:35.600Z,11.47
2022-10-13T17:12:03.759Z,11.47
2022-10-13T17:14:30.900Z,11.47
2022-10-13T17:16:58.351Z,11.47
2022-10-13T17:19:25.929Z,11.47
2022-10-13T17:21:52.933Z,11.46
2022-10-13T17:24:19.981Z,11.47
2022-10-13T17:26:49.060Z,11.47
2022-10-13T17:29:16.069Z,11.44
2022-10-13T17:31:43.183Z,11.42
2022-10-13T17:34:10.245Z,11.36
2022-10-13T17:36:37.717Z,11.29
2022-10-13T17:39:11.235Z,11.25
2022-10-13T17:41:41.089Z,11.24
2022-10-13T17:44:08.156Z,11.22
2022-10-13T17:46:37.982Z,11.21
2022-10-13T17:49:10.889Z,11.20
2022-10-13T17:51:38.323Z,11.20
2022-10-13T17:54:05.766Z,11.19
2022-10-13T17:56:32.865Z,11.18
2022-10-13T17:59:00.643Z,11.17
2022-10-13T18:01:29.245Z,11.14
2022-10-13T18:03:57.463Z,11.14
2022-10-13T18:06:31.477Z,11.14
2022-10-13T18:09:28.481Z,11.12
2022-10-13T18:11:55.497Z,11.09
2022-10-13T18:14:23.898Z,11.04
2022-10-13T18:16:51.751Z,11.02
2022-10-13T18:19:19.040Z,11.01
2022-10-13T18:21:46.138Z,10.98
2022-10-13T18:24:13.307Z,10.97
2022-10-13T18:26:40.699Z,10.92
2022-10-13T18:29:08.652Z,10.87
2022-10-13T18:31:36.802Z,10.83
2022-10-13T18:34:05.343Z,10.79
2022-10-13T18:36:32.469Z,10.76
2022-10-13T18:39:02.246Z,10.72
2022-10-13T18:41:29.557Z,10.70
2022-10-13T18:43:56.652Z,10.70
2022-10-13T18:46:25.984Z,10.68
2022-10-13T18:48:53.064Z,10.67
2022-10-13T18:51:20.088Z,10.67
2022-10-13T18:53:48.063Z,10.67
2022-10-13T18:56:18.778Z,10.69
2022-10-13T18:58:46.129Z,10.65
2022-10-13T19:01:14.189Z,10.64
2022-10-13T19:03:41.670Z,10.63
2022-10-13T19:06:10.207Z,10.62
2022-10-13T19:08:38.100Z,10.63
2022-10-13T19:11:15.863Z,10.62
2022-10-13T19:13:44.098Z,10.60
2022-10-13T19:16:15.257Z,10.58
2022-10-13T19:18:42.361Z,10.58
2022-10-13T19:21:09.790Z,10.57
2022-10-13T19:23:36.840Z,10.53
2022-10-13T19:26:31.039Z,10.51
2022-10-13T19:28:59.919Z,10.50
2022-10-13T19:31:28.067Z,10.50
2022-10-13T19:33:57.114Z,10.50
2022-10-13T19:36:24.168Z,10.49
2022-10-13T19:38:53.019Z,10.50
2022-10-13T19:41:20.353Z,10.50
2022-10-13T19:43:47.450Z,10.51
2022-10-13T19:46:14.876Z,10.50
2022-10-13T19:48:42.019Z,10.49
2022-10-13T19:51:09.557Z,10.48
2022-10-13T19:53:37.266Z,10.48
2022-10-13T19:56:04.953Z,10.48
2022-10-13T19:58:32.092Z,10.47
2022-10-13T20:01:06.872Z,10.47
2022-10-13T20:03:34.173Z,10.47
2022-10-13T20:06:05.086Z,10.45
2022-10-13T20:08:32.353Z,10.46
2022-10-13T20:11:00.769Z,10.45
2022-10-13T20:13:27.818Z,10.45
2022-10-13T20:16:04.948Z,10.46
2022-10-13T20:18:32.047Z,10.52
2022-10-13T20:21:05.869Z,10.58
2022-10-13T20:23:33.341Z,10.62
2022-10-13T20:26:11.152Z,10.63
2022-10-13T20:28:43.172Z,10.67
2022-10-13T20:31:12.592Z,10.70
2022-10-13T20:33:39.981Z,10.71
2022-10-13T20:36:08.329Z,10.74
2022-10-13T20:38:36.185Z,10.73
2022-10-13T20:41:07.386Z,10.72
2022-10-13T20:43:34.960Z,10.69
2022-10-13T20:46:03.203Z,10.68
2022-10-13T20:48:51.132Z,10.65
2022-10-13T20:51:19.843Z,10.65
2022-10-13T20:53:47.916Z,10.64
2022-10-13T20:56:16.714Z,10.62
2022-10-13T20:58:44.314Z,10.60
2022-10-13T21:01:11.453Z,10.58
2022-10-13T21:03:39.024Z,10.58
2022-10-13T21:06:09.487Z,10.55
2022-10-13T21:08:36.747Z,10.55
2022-10-13T21:11:05.103Z,10.53
2022-10-13T21:13:32.164Z,10.53
2022-10-13T21:16:05.023Z,10.51
2022-10-13T21:18:32.141Z,10.49
2022-10-13T21:21:07.038Z,10.49
2022-10-13T21:23:34.474Z,10.48
2022-10-13T21:26:03.329Z,10.45
2022-10-13T21:28:31.179Z,10.44
2022-10-13T21:31:01.061Z,10.43
2022-10-13T21:33:28.339Z,10.40
2022-10-13T21:35:57.879Z,10.40
2022-10-13T21:38:25.011Z,10.42
2022-10-13T21:40:53.998Z,10.42
2022-10-13T21:43:21.634Z,10.41
2022-10-13T21:45:48.651Z,10.41
2022-10-13T21:48:15.732Z,10.41
2022-10-13T21:50:42.836Z,10.41
2022-10-13T21:53:09.930Z,10.41
2022-10-13T21:55:37.056Z,10.40
2022-10-13T21:58:05.425Z,10.41
2022-10-13T22:00:33.407Z,10.40
2022-10-13T22:03:00.537Z,10.40
2022-10-13T22:05:27.557Z,10.39
2022-10-13T22:07:57.411Z,10.38
2022-10-13T22:10:24.446Z,10.36
2022-10-13T22:12:51.538Z,10.35
2022-10-13T22:15:18.547Z,10.35
2022-10-13T22:17:45.573Z,10.37
2022-10-13T22:20:12.661Z,10.36
2022-10-13T22:22:40.580Z,10.35
2022-10-13T22:25:07.896Z,10.34
2022-10-13T22:27:36.084Z,10.33
2022-10-13T22:30:03.315Z,10.34
2022-10-13T22:32:30.338Z,10.35
2022-10-13T22:34:57.337Z,10.35
2022-10-13T22:37:24.546Z,10.33
2022-10-13T22:39:51.647Z,10.34
2022-10-13T22:42:18.742Z,10.34
2022-10-13T22:44:45.747Z,10.35
2022-10-13T22:47:12.844Z,10.37
2022-10-13T22:49:39.845Z,10.36
2022-10-13T22:52:07.204Z,10.36
2022-10-13T22:54:34.222Z,10.34
2022-10-13T22:57:01.245Z,10.34
2022-10-13T22:59:28.755Z,10.33
2022-10-13T23:01:55.786Z,10.33
2022-10-13T23:04:23.849Z,10.33
2022-10-13T23:06:50.912Z,10.33
2022-10-13T23:09:17.953Z,10.32
2022-10-13T23:11:45.168Z,10.29
2022-10-13T23:14:18.426Z,10.31
2022-10-13T23:16:45.463Z,10.31
2022-10-13T23:19:12.703Z,10.31
2022-10-13T23:21:39.758Z,10.31
2022-10-13T23:24:06.966Z,10.31
2022-10-13T23:26:34.477Z,10.30
2022-10-13T23:29:01.733Z,10.30
2022-10-13T23:31:29.139Z,10.30
2022-10-13T23:33:56.425Z,10.30
2022-10-13T23:36:24.808Z,10.28
2022-10-13T23:38:57.460Z,10.28
2022-10-13T23:41:24.708Z,10.28
2022-10-13T23:43:52.229Z,10.28
2022-10-13T23:46:19.571Z,10.26
2022-10-13T23:48:46.903Z,10.26
2022-10-13T23:51:15.809Z,10.25
2022-10-13T23:53:43.261Z,10.23
2022-10-13T23:56:11.040Z,10.24
2022-10-13T23:58:39.008Z,10.25
